Time;durP1;ratioP1;P1;durP2;ratioP2;P2;SDS_P1;SDS_P2;PMS_P1;PMS_P2;Temp;Humidity;BMP_temperature;BMP_pressure;BME280_temperature;BME280_humidity;BME280_pressure;Samples;Min_cycle;Max_cycle;Signal;HPM_P1;HPM_P2
2021/09/05 00:00:13;;;;;;;52.05;29.25;;;17.40;99.90;;;;;;2091892;28;20029;-69
2021/09/05 00:01:14;;;;;;;48.20;29.03;;;17.40;99.90;;;;;;2086863;28;20489;-69
2021/09/05 00:02:15;;;;;;;44.72;28.20;;;17.50;99.90;;;;;;2087496;28;20299;-69
2021/09/05 00:03:15;;;;;;;51.10;28.77;;;17.50;99.90;;;;;;2085065;28;20021;-70
2021/09/05 00:04:16;;;;;;;46.65;29.83;;;17.50;99.90;;;;;;2079314;28;20117;-70
2021/09/05 00:05:17;;;;;;;48.97;31.75;;;17.50;99.90;;;;;;2085173;28;20078;-69
2021/09/05 00:06:18;;;;;;;53.53;32.83;;;17.50;99.90;;;;;;2086644;28;20076;-69
2021/09/05 00:07:19;;;;;;;53.53;33.13;;;17.50;99.90;;;;;;2086753;28;20021;-69
2021/09/05 00:08:19;;;;;;;55.47;33.05;;;17.50;99.90;;;;;;2092254;28;20067;-69
2021/09/05 00:09:20;;;;;;;52.88;32.65;;;17.60;99.90;;;;;;2087222;28;20018;-70
2021/09/05 00:10:21;;;;;;;50.70;32.72;;;17.60;99.90;;;;;;2087009;28;20546;-69
2021/09/05 00:11:21;;;;;;;56.03;34.05;;;17.60;99.90;;;;;;2086768;28;20429;-69
2021/09/05 00:12:23;;;;;;;54.83;33.53;;;17.60;99.90;;;;;;2082227;28;20116;-69
2021/09/05 00:13:23;;;;;;;54.35;33.03;;;17.70;99.90;;;;;;2081866;28;20065;-69
2021/09/05 00:14:24;;;;;;;53.65;33.00;;;17.70;99.90;;;;;;2081615;28;20051;-69
2021/09/05 00:15:25;;;;;;;49.05;32.25;;;17.70;99.90;;;;;;2081560;28;20075;-69
2021/09/05 00:16:26;;;;;;;55.10;31.60;;;17.70;99.90;;;;;;2079401;28;20452;-69
2021/09/05 00:17:28;;;;;;;50.30;31.77;;;17.70;99.90;;;;;;2081481;28;20021;-68
2021/09/05 00:18:29;;;;;;;56.88;31.45;;;17.70;99.90;;;;;;2086545;28;20025;-69
2021/09/05 00:19:29;;;;;;;52.85;30.67;;;17.70;99.90;;;;;;2081867;28;20032;-69
2021/09/05 00:20:30;;;;;;;50.60;32.03;;;17.70;99.90;;;;;;2081306;28;20036;-68
2021/09/05 00:21:31;;;;;;;54.13;33.15;;;17.70;99.90;;;;;;2074655;28;20115;-70
2021/09/05 00:22:33;;;;;;;49.28;31.35;;;17.70;99.90;;;;;;2079397;28;20028;-69
2021/09/05 00:23:34;;;;;;;55.55;31.88;;;17.70;99.90;;;;;;2081000;28;20029;-69
2021/09/05 00:24:34;;;;;;;57.05;33.90;;;17.70;99.90;;;;;;2081170;28;20030;-69
2021/09/05 00:25:35;;;;;;;51.42;32.08;;;17.70;99.90;;;;;;2078503;28;20105;-69
2021/09/05 00:26:36;;;;;;;54.30;32.47;;;17.70;99.90;;;;;;2087191;28;20087;-69
2021/09/05 00:27:37;;;;;;;53.20;32.00;;;17.70;99.90;;;;;;2093780;28;20027;-68
2021/09/05 00:28:37;;;;;;;54.03;31.83;;;17.80;99.90;;;;;;2081675;28;20068;-70
2021/09/05 00:29:38;;;;;;;52.30;33.13;;;17.80;99.90;;;;;;2095671;28;20024;-69
2021/09/05 00:30:39;;;;;;;60.42;34.05;;;17.70;99.90;;;;;;2082112;28;20026;-69
2021/09/05 00:31:39;;;;;;;54.67;32.28;;;17.70;99.90;;;;;;2072887;28;20601;-69
2021/09/05 00:32:40;;;;;;;58.58;34.70;;;17.70;99.90;;;;;;2077521;28;20689;-69
2021/09/05 00:33:41;;;;;;;56.47;33.72;;;17.70;99.90;;;;;;2079058;28;20033;-69
2021/09/05 00:34:42;;;;;;;62.72;35.63;;;17.70;99.90;;;;;;2076278;28;20057;-68
2021/09/05 00:35:42;;;;;;;55.63;34.50;;;17.70;99.90;;;;;;2081906;28;20064;-68
2021/09/05 00:36:43;;;;;;;56.78;35.22;;;17.70;99.90;;;;;;2072982;28;20113;-69
2021/09/05 00:37:44;;;;;;;49.67;33.30;;;17.70;99.90;;;;;;2073886;28;20029;-68
2021/09/05 00:38:44;;;;;;;55.20;33.65;;;17.70;99.90;;;;;;2072813;28;20080;-68
2021/09/05 00:39:45;;;;;;;55.17;33.40;;;17.70;99.90;;;;;;2067009;28;20046;-68
2021/09/05 00:40:46;;;;;;;56.20;35.85;;;17.60;99.90;;;;;;2083910;28;20021;-69
2021/09/05 00:41:47;;;;;;;57.55;35.03;;;17.70;99.90;;;;;;2081493;28;20493;-68
2021/09/05 00:42:47;;;;;;;56.13;34.83;;;17.70;99.90;;;;;;2077647;28;20533;-69
2021/09/05 00:43:57;;;;;;;60.60;36.10;;;17.70;99.90;;;;;;2081076;28;20497;-69
2021/09/05 00:44:57;;;;;;;62.72;36.60;;;17.70;99.90;;;;;;2076289;28;20022;-68
2021/09/05 00:45:58;;;;;;;64.00;38.05;;;17.70;99.90;;;;;;2077955;28;20517;-68
2021/09/05 00:46:59;;;;;;;64.35;36.47;;;17.70;99.90;;;;;;2064736;28;20018;-68
2021/09/05 00:48:00;;;;;;;60.08;37.03;;;17.70;99.90;;;;;;2077546;28;20073;-69
2021/09/05 00:49:02;;;;;;;71.45;39.92;;;17.70;99.90;;;;;;2073479;28;20025;-69
2021/09/05 00:50:04;;;;;;;64.60;38.50;;;17.70;99.90;;;;;;2080433;28;20029;-68
2021/09/05 00:51:04;;;;;;;64.38;38.53;;;17.70;99.90;;;;;;2080596;28;20093;-69
2021/09/05 00:52:06;;;;;;;64.72;39.15;;;17.70;99.90;;;;;;2073323;28;20041;-70
2021/09/05 00:53:07;;;;;;;67.82;39.55;;;17.70;99.90;;;;;;2078446;28;20018;-68
2021/09/05 00:54:09;;;;;;;62.15;37.92;;;17.70;99.90;;;;;;2086810;28;20080;-70
2021/09/05 00:55:11;;;;;;;60.60;38.55;;;17.70;99.90;;;;;;2079822;28;20063;-71
2021/09/05 00:56:12;;;;;;;65.43;40.33;;;17.60;99.90;;;;;;2080728;28;20036;-68
2021/09/05 00:57:14;;;;;;;67.78;39.88;;;17.60;99.90;;;;;;2082725;28;20787;-69
2021/09/05 00:58:15;;;;;;;66.20;39.67;;;17.60;99.90;;;;;;2087961;28;20031;-69
2021/09/05 00:59:22;;;;;;;67.28;40.05;;;17.60;99.90;;;;;;2087738;28;20029;-69
2021/09/05 01:00:24;;;;;;;68.47;40.28;;;17.60;99.90;;;;;;2072193;28;20128;-70
2021/09/05 01:01:25;;;;;;;65.50;38.70;;;17.50;99.90;;;;;;2076334;28;20576;-68
2021/09/05 01:02:26;;;;;;;72.38;39.60;;;17.50;99.90;;;;;;2075358;28;20097;-68
2021/09/05 01:03:26;;;;;;;62.47;37.90;;;17.50;99.90;;;;;;2082719;28;20041;-70
2021/09/05 01:04:27;;;;;;;62.47;38.33;;;17.40;99.90;;;;;;2087961;28;20590;-69
2021/09/05 01:05:29;;;;;;;68.90;39.50;;;17.40;99.90;;;;;;2072478;28;20056;-69
2021/09/05 01:06:31;;;;;;;62.97;37.83;;;17.30;99.90;;;;;;2080383;28;20498;-69
2021/09/05 01:07:33;;;;;;;65.07;38.22;;;17.20;99.90;;;;;;2081400;28;20080;-69
2021/09/05 01:08:34;;;;;;;63.90;37.88;;;17.20;99.90;;;;;;2081150;28;20509;-67
2021/09/05 01:09:35;;;;;;;62.25;37.17;;;17.20;99.90;;;;;;2080468;28;20026;-69
2021/09/05 01:10:35;;;;;;;70.82;39.72;;;17.10;99.90;;;;;;2068295;28;20030;-68
2021/09/05 01:11:37;;;;;;;70.45;39.50;;;17.10;99.90;;;;;;2071641;28;20125;-69
2021/09/05 01:12:38;;;;;;;73.47;41.47;;;17.10;99.90;;;;;;2072371;28;20030;-68
2021/09/05 01:13:39;;;;;;;66.50;39.58;;;17.10;99.90;;;;;;2079085;28;20064;-68
2021/09/05 01:14:39;;;;;;;75.88;42.03;;;17.00;99.90;;;;;;2081120;28;20079;-71
2021/09/05 01:15:40;;;;;;;69.43;40.00;;;17.00;99.90;;;;;;2080904;28;20034;-70
2021/09/05 01:16:42;;;;;;;75.78;41.40;;;17.00;99.90;;;;;;2074811;28;20048;-70
2021/09/05 01:17:43;;;;;;;79.10;41.35;;;17.00;99.90;;;;;;2080549;28;20444;-70
2021/09/05 01:18:43;;;;;;;68.25;40.05;;;17.00;99.90;;;;;;2086429;28;20040;-70
2021/09/05 01:19:44;;;;;;;74.43;42.00;;;16.90;99.90;;;;;;2081138;28;20579;-70
2021/09/05 01:20:45;;;;;;;73.72;43.00;;;17.00;99.90;;;;;;2073858;28;20639;-70
2021/09/05 01:21:48;;;;;;;70.80;42.05;;;17.00;99.90;;;;;;2074269;28;20048;-68
2021/09/05 01:22:49;;;;;;;70.40;41.08;;;17.00;99.90;;;;;;2079137;28;20079;-70
2021/09/05 01:23:50;;;;;;;72.32;42.22;;;17.00;99.90;;;;;;2083633;28;20025;-69
2021/09/05 01:24:50;;;;;;;71.85;41.38;;;17.00;99.90;;;;;;2086519;28;20025;-69
2021/09/05 01:25:51;;;;;;;72.18;41.97;;;17.00;99.90;;;;;;2079083;28;20030;-69
2021/09/05 01:26:56;;;;;;;70.80;42.78;;;17.00;99.90;;;;;;2071593;28;20053;-69
2021/09/05 01:27:56;;;;;;;79.45;42.22;;;17.00;99.90;;;;;;2085948;28;20025;-69
2021/09/05 01:28:58;;;;;;;78.30;42.45;;;17.00;99.90;;;;;;2092434;28;20025;-68
2021/09/05 01:29:58;;;;;;;68.55;41.58;;;17.00;99.90;;;;;;2072766;28;20725;-69
2021/09/05 01:30:59;;;;;;;71.32;42.45;;;17.00;99.90;;;;;;2070731;28;20029;-68
2021/09/05 01:32:00;;;;;;;69.68;42.25;;;17.00;99.90;;;;;;2074170;28;20053;-70
2021/09/05 01:33:02;;;;;;;73.53;42.97;;;17.00;99.90;;;;;;2082248;28;20443;-69
2021/09/05 01:34:03;;;;;;;72.10;42.03;;;17.00;99.90;;;;;;2085150;28;20056;-69
2021/09/05 01:35:04;;;;;;;76.90;42.45;;;17.00;99.90;;;;;;2080205;28;20159;-68
2021/09/05 01:36:04;;;;;;;73.23;42.47;;;17.00;99.90;;;;;;2080041;28;20113;-69
2021/09/05 01:37:05;;;;;;;75.93;43.53;;;16.90;99.90;;;;;;2080561;28;20260;-69
2021/09/05 01:38:06;;;;;;;78.53;44.05;;;16.90;99.90;;;;;;2075853;28;20574;-69
2021/09/05 01:39:09;;;;;;;73.45;43.03;;;16.90;99.90;;;;;;2077590;28;20026;-69
2021/09/05 01:40:10;;;;;;;75.32;43.22;;;16.90;99.90;;;;;;2080185;28;20112;-69
2021/09/05 01:41:11;;;;;;;75.70;42.58;;;16.90;99.90;;;;;;2075938;28;20451;-69
2021/09/05 01:42:11;;;;;;;79.78;43.50;;;16.90;99.90;;;;;;2064138;28;20058;-69
2021/09/05 01:43:12;;;;;;;78.85;44.03;;;16.80;99.90;;;;;;2078087;28;20464;-69
2021/09/05 01:44:30;;;;;;;80.20;42.72;;;16.90;99.90;;;;;;2080862;28;20032;-69
2021/09/05 01:45:31;;;;;;;72.55;42.20;;;16.90;99.90;;;;;;2081002;28;20017;-69
2021/09/05 01:46:32;;;;;;;70.55;40.60;;;16.90;99.90;;;;;;2075190;28;20492;-69
2021/09/05 01:47:33;;;;;;;74.40;42.40;;;16.90;99.90;;;;;;2072557;28;20029;-69
2021/09/05 01:48:33;;;;;;;77.80;43.10;;;16.90;99.90;;;;;;2080223;28;20564;-68
2021/09/05 01:49:34;;;;;;;71.85;40.28;;;16.90;99.90;;;;;;2071637;28;20109;-69
2021/09/05 01:50:35;;;;;;;72.95;42.40;;;16.90;99.90;;;;;;2076055;28;20053;-69
2021/09/05 01:51:35;;;;;;;76.57;41.33;;;16.90;99.90;;;;;;2072205;28;20148;-68
2021/09/05 01:52:36;;;;;;;73.05;42.17;;;16.90;99.90;;;;;;2076469;28;20033;-69
2021/09/05 01:53:37;;;;;;;73.03;41.47;;;16.90;99.90;;;;;;2076474;28;20497;-69
2021/09/05 01:54:37;;;;;;;72.78;40.72;;;16.90;99.90;;;;;;2068709;28;20049;-69
2021/09/05 01:55:39;;;;;;;71.25;41.78;;;16.90;99.90;;;;;;2063576;28;20026;-69
2021/09/05 01:56:39;;;;;;;75.45;40.13;;;16.90;99.90;;;;;;2077322;28;20033;-69
2021/09/05 01:57:40;;;;;;;70.75;41.58;;;16.90;99.90;;;;;;2081092;28;20715;-68
2021/09/05 01:58:41;;;;;;;76.45;42.50;;;16.90;99.90;;;;;;2079697;28;20025;-69
2021/09/05 01:59:41;;;;;;;70.78;41.35;;;16.90;99.90;;;;;;2077882;28;20044;-69
2021/09/05 02:00:42;;;;;;;79.90;42.78;;;17.00;99.90;;;;;;2073296;28;20121;-68
2021/09/05 02:01:43;;;;;;;72.78;40.97;;;17.00;99.90;;;;;;2075737;28;20109;-68
2021/09/05 02:02:43;;;;;;;75.63;42.15;;;17.00;99.90;;;;;;2076897;28;20101;-68
2021/09/05 02:03:44;;;;;;;70.60;40.42;;;17.00;99.90;;;;;;2078874;28;20670;-68
2021/09/05 02:04:45;;;;;;;72.97;40.17;;;17.00;99.90;;;;;;2071921;28;20410;-69
2021/09/05 02:05:45;;;;;;;67.50;40.15;;;17.00;99.90;;;;;;2080175;28;20489;-69
2021/09/05 02:06:46;;;;;;;67.35;39.30;;;17.00;99.90;;;;;;2072463;28;20081;-69
2021/09/05 02:07:47;;;;;;;68.53;40.22;;;17.00;99.90;;;;;;2075020;28;20047;-69
2021/09/05 02:08:48;;;;;;;66.88;39.35;;;17.00;99.90;;;;;;2072716;28;20018;-69
2021/09/05 02:09:48;;;;;;;69.77;39.70;;;17.10;99.90;;;;;;2071682;28;20129;-69
2021/09/05 02:10:49;;;;;;;68.80;39.55;;;17.10;99.90;;;;;;2075753;28;20257;-69
2021/09/05 02:11:52;;;;;;;69.03;39.33;;;17.10;99.90;;;;;;2080263;28;20021;-69
2021/09/05 02:12:53;;;;;;;70.65;39.22;;;17.10;99.90;;;;;;2080556;28;20041;-68
2021/09/05 02:13:54;;;;;;;68.25;38.83;;;17.10;99.90;;;;;;2076623;28;20810;-70
2021/09/05 02:14:55;;;;;;;70.68;39.70;;;17.10;99.90;;;;;;2079818;28;20047;-69
2021/09/05 02:15:56;;;;;;;65.32;37.67;;;17.10;99.90;;;;;;2074789;28;20060;-69
2021/09/05 02:16:57;;;;;;;65.15;36.95;;;17.10;99.90;;;;;;2076556;28;20025;-69
2021/09/05 02:17:57;;;;;;;62.40;37.63;;;17.00;99.90;;;;;;2080827;28;20029;-68
2021/09/05 02:18:58;;;;;;;69.13;38.90;;;17.00;99.90;;;;;;2080146;28;20557;-68
2021/09/05 02:19:59;;;;;;;70.93;39.40;;;17.00;99.90;;;;;;2080554;28;20025;-68
2021/09/05 02:21:00;;;;;;;67.35;39.75;;;17.00;99.90;;;;;;2078336;28;20022;-68
2021/09/05 02:22:01;;;;;;;69.35;40.05;;;17.00;99.90;;;;;;2077662;28;20024;-68
2021/09/05 02:23:01;;;;;;;70.20;39.55;;;17.00;99.90;;;;;;2080585;28;20075;-68
2021/09/05 02:24:02;;;;;;;62.30;38.22;;;17.00;99.90;;;;;;2078862;28;20076;-68
2021/09/05 02:25:03;;;;;;;64.63;38.90;;;17.00;99.90;;;;;;2080468;28;20042;-68
2021/09/05 02:26:04;;;;;;;67.28;38.20;;;17.00;99.90;;;;;;2080431;28;20017;-69
2021/09/05 02:27:05;;;;;;;66.07;38.15;;;16.90;99.90;;;;;;2080303;28;20040;-69
2021/09/05 02:28:06;;;;;;;69.00;40.47;;;16.90;99.90;;;;;;2079929;28;20532;-68
2021/09/05 02:29:07;;;;;;;68.13;40.20;;;16.90;99.90;;;;;;2077860;28;20672;-68
2021/09/05 02:30:10;;;;;;;67.00;39.92;;;16.90;99.90;;;;;;2072891;28;20076;-67
2021/09/05 02:31:11;;;;;;;65.93;39.30;;;16.90;99.90;;;;;;2079248;28;20021;-69
2021/09/05 02:32:12;;;;;;;70.78;39.78;;;16.90;99.90;;;;;;2079233;28;20077;-67
2021/09/05 02:33:12;;;;;;;65.88;39.47;;;16.90;99.90;;;;;;2086972;28;20676;-68
2021/09/05 02:34:13;;;;;;;72.47;40.95;;;16.80;99.90;;;;;;2082559;28;20036;-68
2021/09/05 02:35:14;;;;;;;72.45;41.47;;;16.70;99.90;;;;;;2079983;28;20022;-67
2021/09/05 02:36:14;;;;;;;71.13;42.15;;;16.60;99.90;;;;;;2076000;28;20017;-68
2021/09/05 02:37:15;;;;;;;71.28;40.70;;;16.50;99.90;;;;;;2071954;28;20026;-68
2021/09/05 02:38:16;;;;;;;79.85;44.20;;;16.40;99.90;;;;;;2071599;28;20461;-69
2021/09/05 02:39:16;;;;;;;67.93;41.08;;;16.30;99.90;;;;;;2072785;28;20028;-68
2021/09/05 02:40:17;;;;;;;76.57;41.65;;;16.40;99.90;;;;;;2079479;28;20048;-68
2021/09/05 02:41:18;;;;;;;74.15;42.25;;;16.30;99.90;;;;;;2080209;28;20385;-67
2021/09/05 02:42:18;;;;;;;72.40;41.97;;;16.20;99.90;;;;;;2079311;28;20127;-68
2021/09/05 02:43:19;;;;;;;67.65;41.03;;;16.20;99.90;;;;;;2061848;28;20031;-68
2021/09/05 02:44:20;;;;;;;77.82;41.60;;;16.20;99.90;;;;;;2077046;28;20025;-68
2021/09/05 02:45:21;;;;;;;81.95;42.00;;;16.10;99.90;;;;;;2080181;28;20108;-67
2021/09/05 02:46:21;;;;;;;73.10;41.38;;;16.10;99.90;;;;;;2079370;28;20048;-67
2021/09/05 02:47:22;;;;;;;77.72;41.55;;;16.10;99.90;;;;;;2079937;28;20159;-67
2021/09/05 02:48:23;;;;;;;74.30;42.08;;;16.10;99.90;;;;;;2080515;28;20040;-67
2021/09/05 02:49:23;;;;;;;72.22;41.53;;;16.10;99.90;;;;;;2078852;28;20061;-67
2021/09/05 02:50:24;;;;;;;72.93;41.28;;;16.20;99.90;;;;;;2080609;28;20021;-68
2021/09/05 02:51:25;;;;;;;77.88;42.35;;;16.30;99.90;;;;;;2077298;28;20033;-69
2021/09/05 02:52:26;;;;;;;66.80;39.95;;;16.40;99.90;;;;;;2079664;28;20021;-69
2021/09/05 02:53:26;;;;;;;67.30;41.10;;;16.40;99.90;;;;;;2071027;28;20029;-69
2021/09/05 02:54:27;;;;;;;72.93;39.72;;;16.40;99.90;;;;;;2077418;28;20045;-69
2021/09/05 02:55:28;;;;;;;75.13;41.08;;;16.40;99.90;;;;;;2080696;28;20053;-69
2021/09/05 02:56:29;;;;;;;73.18;41.67;;;16.50;99.90;;;;;;2079728;28;20523;-69
2021/09/05 02:57:29;;;;;;;72.03;41.17;;;16.50;99.90;;;;;;2080145;28;20021;-68
2021/09/05 02:58:31;;;;;;;72.28;41.15;;;16.50;99.90;;;;;;2079067;28;20029;-69
2021/09/05 02:59:32;;;;;;;74.63;40.15;;;16.50;99.90;;;;;;2083003;28;20032;-68
2021/09/05 03:00:33;;;;;;;70.07;40.67;;;16.50;99.90;;;;;;2078048;28;20029;-68
2021/09/05 03:01:34;;;;;;;62.00;38.45;;;16.50;99.90;;;;;;2076509;28;20575;-69
2021/09/05 03:02:34;;;;;;;73.72;40.28;;;16.50;99.90;;;;;;2078939;28;20060;-69
2021/09/05 03:03:35;;;;;;;74.43;39.42;;;16.60;99.90;;;;;;2079400;28;20437;-69
2021/09/05 03:04:36;;;;;;;70.10;40.35;;;16.60;99.90;;;;;;2079164;28;20025;-68
2021/09/05 03:05:36;;;;;;;69.68;40.83;;;16.60;99.90;;;;;;2079263;28;20033;-68
2021/09/05 03:06:37;;;;;;;72.72;40.42;;;16.60;99.90;;;;;;2075893;28;20029;-68
2021/09/05 03:07:38;;;;;;;70.63;40.55;;;16.60;99.90;;;;;;2071200;28;20052;-68
2021/09/05 03:08:38;;;;;;;73.90;40.75;;;16.60;99.90;;;;;;2069559;28;20100;-68
2021/09/05 03:09:40;;;;;;;73.03;40.30;;;16.60;99.90;;;;;;2075070;28;20029;-68
2021/09/05 03:10:41;;;;;;;75.25;39.38;;;16.50;99.90;;;;;;2075664;28;20485;-69
2021/09/05 03:11:41;;;;;;;73.35;39.72;;;16.60;99.90;;;;;;2074420;28;20034;-68
2021/09/05 03:12:42;;;;;;;71.30;39.50;;;16.50;99.90;;;;;;2080667;28;20030;-68
2021/09/05 03:13:45;;;;;;;70.65;39.53;;;16.50;99.90;;;;;;2079337;28;20056;-68
2021/09/05 03:14:46;;;;;;;65.93;38.25;;;16.60;99.90;;;;;;2079642;28;20374;-68
2021/09/05 03:15:46;;;;;;;67.40;38.30;;;16.60;99.90;;;;;;2079057;28;20037;-68
2021/09/05 03:16:47;;;;;;;69.93;39.67;;;16.60;99.90;;;;;;2074527;28;20537;-68
2021/09/05 03:17:48;;;;;;;66.15;39.70;;;16.50;99.90;;;;;;2077490;28;20040;-67
2021/09/05 03:18:49;;;;;;;63.28;38.80;;;16.50;99.90;;;;;;2078385;28;20022;-67
2021/09/05 03:19:49;;;;;;;69.63;40.53;;;16.50;99.90;;;;;;2080473;28;20033;-67
2021/09/05 03:20:50;;;;;;;67.68;39.25;;;16.50;99.90;;;;;;2080241;28;20026;-67
2021/09/05 03:21:51;;;;;;;69.82;39.58;;;16.40;99.90;;;;;;2074958;28;20024;-67
2021/09/05 03:22:51;;;;;;;71.70;38.70;;;16.40;99.90;;;;;;2071592;28;20461;-67
2021/09/05 03:23:52;;;;;;;70.47;39.88;;;16.40;99.90;;;;;;2077396;28;20109;-67
2021/09/05 03:24:53;;;;;;;67.47;40.17;;;16.30;99.90;;;;;;2079610;28;20045;-67
2021/09/05 03:25:53;;;;;;;76.28;40.90;;;16.20;99.90;;;;;;2079482;28;20030;-67
2021/09/05 03:26:54;;;;;;;75.75;43.28;;;16.20;99.90;;;;;;2073043;28;20029;-67
2021/09/05 03:27:55;;;;;;;71.90;42.33;;;16.20;99.90;;;;;;2079717;28;20029;-68
2021/09/05 03:28:55;;;;;;;81.18;42.63;;;16.10;99.90;;;;;;2075685;28;20021;-67
2021/09/05 03:29:56;;;;;;;79.55;42.28;;;16.10;99.90;;;;;;2071400;28;20024;-67
2021/09/05 03:30:57;;;;;;;78.00;43.55;;;16.00;99.90;;;;;;2071468;28;20695;-67
2021/09/05 03:31:57;;;;;;;76.70;41.83;;;16.00;99.90;;;;;;2072260;28;20129;-68
2021/09/05 03:32:58;;;;;;;78.35;43.50;;;15.90;99.90;;;;;;2083691;28;20040;-67
2021/09/05 03:34:00;;;;;;;79.07;43.70;;;15.90;99.90;;;;;;2085610;28;20036;-67
2021/09/05 03:35:01;;;;;;;82.30;42.53;;;15.90;99.90;;;;;;2076831;28;20148;-67
2021/09/05 03:36:02;;;;;;;79.55;42.75;;;15.90;99.90;;;;;;2091267;28;20147;-67
2021/09/05 03:37:02;;;;;;;83.25;45.33;;;15.80;99.90;;;;;;2096016;28;20026;-68
2021/09/05 03:38:03;;;;;;;87.63;45.85;;;15.80;99.90;;;;;;2080078;28;20036;-67
2021/09/05 03:39:04;;;;;;;89.05;45.13;;;15.80;99.90;;;;;;2078875;28;20109;-67
2021/09/05 03:40:05;;;;;;;88.38;45.05;;;15.70;99.90;;;;;;2079221;28;20098;-68
2021/09/05 03:41:06;;;;;;;80.28;43.88;;;15.80;99.90;;;;;;2079716;28;20117;-67
2021/09/05 03:42:07;;;;;;;81.97;44.58;;;15.70;99.90;;;;;;2077246;28;20041;-67
2021/09/05 03:43:07;;;;;;;83.45;42.35;;;15.70;99.90;;;;;;2075964;28;20544;-67
2021/09/05 03:44:08;;;;;;;76.80;41.90;;;15.70;99.90;;;;;;2071773;28;20029;-68
2021/09/05 03:45:09;;;;;;;78.50;42.55;;;15.70;99.90;;;;;;2074623;28;20022;-67
2021/09/05 03:46:10;;;;;;;73.32;40.97;;;15.70;99.90;;;;;;2079878;28;20100;-67
2021/09/05 03:47:12;;;;;;;76.05;42.20;;;15.60;99.90;;;;;;2075998;28;20599;-66
2021/09/05 03:48:12;;;;;;;74.85;41.90;;;15.60;99.90;;;;;;2073565;28;20118;-67
2021/09/05 03:49:13;;;;;;;71.72;40.33;;;15.60;99.90;;;;;;2080699;28;20032;-67
2021/09/05 03:50:14;;;;;;;66.05;40.03;;;15.60;99.90;;;;;;2082039;28;20025;-68
2021/09/05 03:51:15;;;;;;;71.10;40.38;;;15.60;99.90;;;;;;2081962;28;20105;-68
2021/09/05 03:52:15;;;;;;;71.95;40.65;;;15.60;99.90;;;;;;2081983;28;20029;-67
2021/09/05 03:53:16;;;;;;;72.15;41.88;;;15.50;99.90;;;;;;2081663;28;20017;-67
2021/09/05 03:54:17;;;;;;;71.28;39.03;;;15.50;99.90;;;;;;2080083;28;20025;-67
2021/09/05 03:55:18;;;;;;;71.40;41.60;;;15.50;99.90;;;;;;2074049;28;20030;-67
2021/09/05 03:56:18;;;;;;;80.88;41.30;;;15.50;99.90;;;;;;2081055;28;20041;-67
2021/09/05 03:57:19;;;;;;;73.68;40.63;;;15.50;99.90;;;;;;2065530;28;20037;-67
2021/09/05 03:58:20;;;;;;;71.35;40.30;;;15.40;99.90;;;;;;2072551;28;20122;-67
2021/09/05 03:59:20;;;;;;;74.95;40.22;;;15.50;99.90;;;;;;2073650;28;20053;-67
2021/09/05 04:00:21;;;;;;;76.10;41.28;;;15.40;99.90;;;;;;2081124;28;20021;-67
2021/09/05 04:01:22;;;;;;;67.00;39.35;;;15.50;99.90;;;;;;2076439;28;20077;-68
2021/09/05 04:02:22;;;;;;;71.53;40.97;;;15.40;99.90;;;;;;2080501;28;20537;-68
2021/09/05 04:03:24;;;;;;;71.93;40.53;;;15.40;99.90;;;;;;2081471;28;20017;-67
2021/09/05 04:04:24;;;;;;;74.68;40.42;;;15.40;99.90;;;;;;2081494;28;20014;-66
2021/09/05 04:05:25;;;;;;;70.97;40.70;;;15.40;99.90;;;;;;2074073;28;20104;-67
2021/09/05 04:06:26;;;;;;;73.63;39.60;;;15.40;99.90;;;;;;2074965;28;20026;-66
2021/09/05 04:07:27;;;;;;;74.07;40.53;;;15.30;99.90;;;;;;2081809;28;20022;-67
2021/09/05 04:08:38;;;;;;;77.37;41.33;;;15.30;99.90;;;;;;2081711;28;20152;-68
2021/09/05 04:10:58;;;;;;;82.38;42.42;;;15.30;99.90;;;;;;2073591;28;20053;-68
2021/09/05 04:11:59;;;;;;;82.32;43.03;;;15.30;99.90;;;;;;2077373;28;20521;-68
2021/09/05 04:13:00;;;;;;;76.97;41.58;;;15.30;99.90;;;;;;2081280;28;20018;-67
2021/09/05 04:14:01;;;;;;;84.47;43.10;;;15.30;99.90;;;;;;2081321;28;20053;-67
2021/09/05 04:15:02;;;;;;;74.35;41.67;;;15.30;99.90;;;;;;2081255;28;20362;-67
2021/09/05 04:16:05;;;;;;;81.77;43.00;;;15.30;99.90;;;;;;2076662;28;20529;-67
2021/09/05 04:17:06;;;;;;;77.30;42.17;;;15.30;99.90;;;;;;2079653;28;20292;-68
2021/09/05 04:18:08;;;;;;;75.63;40.17;;;15.20;99.90;;;;;;2069882;28;20022;-68
2021/09/05 04:19:08;;;;;;;72.82;40.60;;;15.20;99.90;;;;;;2072532;28;20033;-66
2021/09/05 04:20:10;;;;;;;75.40;41.28;;;15.30;99.90;;;;;;2073373;28;20153;-67
2021/09/05 04:21:10;;;;;;;76.95;41.10;;;15.20;99.90;;;;;;2072892;28;20061;-67
2021/09/05 04:22:11;;;;;;;73.20;41.25;;;15.20;99.90;;;;;;2077659;28;20029;-67
2021/09/05 04:23:12;;;;;;;69.82;39.22;;;15.20;99.90;;;;;;2081792;28;20025;-66
2021/09/05 04:24:12;;;;;;;77.88;42.92;;;15.20;99.90;;;;;;2080584;28;20799;-66
2021/09/05 04:25:14;;;;;;;81.88;42.00;;;15.20;99.90;;;;;;2075854;28;20744;-67
2021/09/05 04:26:14;;;;;;;76.53;42.22;;;15.20;99.90;;;;;;2075315;28;20124;-67
2021/09/05 04:27:16;;;;;;;80.10;41.45;;;15.20;99.90;;;;;;2074791;28;20717;-67
2021/09/05 04:28:16;;;;;;;77.70;42.17;;;15.20;99.90;;;;;;2081420;28;20509;-67
2021/09/05 04:29:17;;;;;;;76.30;42.30;;;15.20;99.90;;;;;;2080598;28;20029;-67
2021/09/05 04:30:18;;;;;;;74.82;41.75;;;15.10;99.90;;;;;;2081408;28;20032;-67
2021/09/05 04:31:19;;;;;;;77.43;43.00;;;15.10;99.90;;;;;;2076016;28;20018;-66
2021/09/05 04:32:20;;;;;;;78.30;42.10;;;15.10;99.90;;;;;;2074546;28;20029;-67
2021/09/05 04:33:21;;;;;;;71.75;40.10;;;15.20;99.90;;;;;;2084156;28;20024;-67
2021/09/05 04:34:21;;;;;;;66.82;40.05;;;15.20;99.90;;;;;;2077733;28;20040;-66
2021/09/05 04:35:22;;;;;;;69.60;39.00;;;15.20;99.90;;;;;;2081734;28;20032;-66
2021/09/05 04:36:23;;;;;;;67.30;39.28;;;15.20;99.90;;;;;;2075044;28;20054;-67
2021/09/05 04:37:23;;;;;;;66.82;37.88;;;15.20;99.90;;;;;;2073367;28;20026;-67
2021/09/05 04:38:24;;;;;;;63.55;36.10;;;15.20;99.90;;;;;;2080833;28;20128;-67
2021/09/05 04:39:25;;;;;;;58.15;35.30;;;15.30;99.90;;;;;;2080387;28;20072;-66
2021/09/05 04:40:25;;;;;;;59.60;35.38;;;15.30;99.90;;;;;;2077844;28;20049;-66
2021/09/05 04:41:26;;;;;;;65.45;36.55;;;15.30;99.90;;;;;;2077744;28;20041;-67
2021/09/05 04:42:27;;;;;;;62.17;35.72;;;15.30;99.90;;;;;;2079989;28;20014;-66
2021/09/05 04:43:27;;;;;;;55.58;31.80;;;15.40;99.90;;;;;;2081680;28;20496;-66
2021/09/05 04:44:28;;;;;;;52.58;31.08;;;15.40;99.90;;;;;;2080929;28;20029;-66
2021/09/05 04:45:29;;;;;;;56.53;32.88;;;15.40;99.90;;;;;;2080897;28;20013;-66
2021/09/05 04:46:29;;;;;;;51.65;30.02;;;15.50;99.90;;;;;;2081131;28;20037;-66
2021/09/05 04:47:30;;;;;;;56.53;29.90;;;15.50;99.90;;;;;;2080546;28;20029;-66
2021/09/05 04:48:31;;;;;;;51.08;30.58;;;15.60;99.90;;;;;;2076906;28;20025;-66
2021/09/05 04:49:32;;;;;;;50.42;30.77;;;15.60;99.90;;;;;;2078585;28;20389;-66
2021/09/05 04:50:33;;;;;;;66.30;34.55;;;15.60;99.90;;;;;;2072967;28;20108;-66
2021/09/05 04:51:34;;;;;;;46.30;26.58;;;15.60;99.90;;;;;;2081132;28;20436;-66
2021/09/05 04:52:34;;;;;;;64.75;38.10;;;15.70;99.90;;;;;;2081083;28;20096;-66
2021/09/05 04:53:35;;;;;;;79.30;40.67;;;15.70;99.90;;;;;;2080101;28;20127;-66
2021/09/05 04:54:36;;;;;;;73.50;41.78;;;15.60;99.90;;;;;;2072425;28;20049;-66
2021/09/05 04:55:37;;;;;;;80.50;41.72;;;15.60;99.90;;;;;;2072497;28;20112;-66
2021/09/05 04:56:37;;;;;;;81.38;43.75;;;15.50;99.90;;;;;;2076652;28;20025;-66
2021/09/05 04:57:38;;;;;;;84.32;43.95;;;15.50;99.90;;;;;;2080540;28;20693;-66
2021/09/05 04:58:39;;;;;;;80.22;44.13;;;15.40;99.90;;;;;;2080375;28;20021;-66
2021/09/05 04:59:39;;;;;;;85.47;44.45;;;15.40;99.90;;;;;;2076371;28;20494;-66
2021/09/05 05:00:40;;;;;;;81.00;43.30;;;15.30;99.90;;;;;;2080919;28;20022;-66
2021/09/05 05:01:41;;;;;;;82.70;44.25;;;15.30;99.90;;;;;;2074600;28;20038;-66
2021/09/05 05:02:41;;;;;;;80.72;42.80;;;15.20;99.90;;;;;;2072007;28;20079;-66
2021/09/05 05:03:42;;;;;;;73.95;42.20;;;15.20;99.90;;;;;;2072151;28;20026;-66
2021/09/05 05:04:43;;;;;;;77.50;42.15;;;15.20;99.90;;;;;;2072624;28;20106;-66
2021/09/05 05:05:43;;;;;;;79.93;42.42;;;15.20;99.90;;;;;;2072713;28;20057;-66
2021/09/05 05:06:44;;;;;;;78.30;42.17;;;15.20;99.90;;;;;;2078234;28;20025;-66
2021/09/05 05:07:45;;;;;;;73.60;42.05;;;15.10;99.90;;;;;;2079939;28;20671;-66
2021/09/05 05:08:47;;;;;;;71.53;41.22;;;15.10;99.90;;;;;;2075977;28;20029;-66
2021/09/05 05:09:50;;;;;;;79.15;41.42;;;15.10;99.90;;;;;;2073377;28;20056;-66
2021/09/05 05:10:51;;;;;;;79.53;42.47;;;15.10;99.90;;;;;;2080163;28;20018;-66